VABP/BHO METAR and TAF weather

Enter ICAO airport designator
Station Type Date Time Source
VABP METAR 2022/06/27 16:30 UTC NOAA

VABP 271630Z 19002KT 6000 SCT025 BKN100 29/23 Q1004 NOSIG


Station Type Date Time Source
VABP Decoded METAR 2022/06/27 16:30 UTC NOAA

Bhopal / Bairagarh, India (VABP) 23-17N 077-21E 523M
Jun 27, 2022 - 12:30 PM EDT / 2022.06.27 1630 UTC
Wind: from the S (190 degrees) at 2 MPH (2 KT):0
Visibility: 3 mile(s):0
Sky conditions: mostly cloudy
Temperature: 84 F (29 C)
Dew Point: 73 F (23 C)
Relative Humidity: 70%
Pressure (altimeter): 29.65 in. Hg (1004 hPa)
ob: VABP 271630Z 19002KT 6000 SCT025 BKN100 29/23 Q1004 NOSIG
cycle: 16

Station Type Date Time Source
VABP TAF 2022/06/18 06:00 UTC NOAA

TAF VABP 180500Z 1806/1912 27010KT 6000 SCT020 SCT100
TEMPO 1810/1814 3000 -RA TSH FEW030CB
BECMG 1815/1817 23010KT 4000 -RA HZ SCT020 BKN100
BECMG 1905/1907 25010KT 6000
TEMPO 1907/1912 4000 -RA TSH FEW030CB

Example: see airport list